createdAt,value
2018-06-25T00:01:24.981Z,61.74
2018-06-25T00:04:00.565Z,62.30
2018-06-25T00:06:36.056Z,62.25
2018-06-25T00:09:11.948Z,62.54
2018-06-25T00:11:47.661Z,62.21
2018-06-25T00:14:23.534Z,62.35
2018-06-25T00:16:59.097Z,62.50
2018-06-25T00:19:34.566Z,62.71
2018-06-25T00:22:10.383Z,63.37
2018-06-25T00:24:46.031Z,63.55
2018-06-25T00:27:21.766Z,63.68
2018-06-25T00:29:57.643Z,64.04
2018-06-25T00:32:33.176Z,63.84
2018-06-25T00:35:08.811Z,64.50
2018-06-25T00:37:44.596Z,64.24
2018-06-25T00:40:20.611Z,64.88
2018-06-25T00:42:59.094Z,65.57
2018-06-25T00:45:34.544Z,66.40
2018-06-25T00:48:11.535Z,66.26
2018-06-25T00:50:46.998Z,67.06
2018-06-25T00:53:22.499Z,66.68
2018-06-25T00:55:57.800Z,66.74
2018-06-25T00:58:44.468Z,67.19
2018-06-25T01:01:20.184Z,67.62
2018-06-25T01:03:55.731Z,68.19
2018-06-25T01:06:31.208Z,67.87
2018-06-25T01:09:09.432Z,67.64
2018-06-25T01:11:45.074Z,68.09
2018-06-25T01:14:20.664Z,68.23
2018-06-25T01:16:56.292Z,68.07
2018-06-25T01:19:31.809Z,68.52
2018-06-25T01:22:08.366Z,69.05
2018-06-25T01:24:43.842Z,69.40
2018-06-25T01:27:19.094Z,69.11
2018-06-25T01:29:54.864Z,70.18
2018-06-25T01:32:30.570Z,70.02
2018-06-25T01:35:06.226Z,70.29
2018-06-25T01:37:41.890Z,69.95
2018-06-25T01:40:17.423Z,70.38
2018-06-25T01:42:53.160Z,70.68
2018-06-25T01:45:29.000Z,70.40
2018-06-25T01:48:04.686Z,70.89
2018-06-25T01:50:40.366Z,70.88
2018-06-25T01:53:15.927Z,71.06
2018-06-25T01:55:51.530Z,71.04
2018-06-25T01:58:27.088Z,71.40
2018-06-25T02:01:02.754Z,70.93
2018-06-25T02:03:38.408Z,71.23
2018-06-25T02:06:14.164Z,71.47
2018-06-25T02:08:49.688Z,72.17
2018-06-25T02:11:25.276Z,71.94
2018-06-25T02:14:01.056Z,71.52
2018-06-25T02:16:37.000Z,72.00
2018-06-25T02:19:12.700Z,72.49
2018-06-25T02:21:48.034Z,72.42
2018-06-25T02:24:23.722Z,72.59
2018-06-25T02:26:59.217Z,72.37
2018-06-25T02:29:34.615Z,72.30
2018-06-25T02:32:10.264Z,72.47
2018-06-25T02:34:46.201Z,72.55
2018-06-25T02:37:21.674Z,72.47
2018-06-25T02:39:57.230Z,72.74
2018-06-25T02:42:32.916Z,72.53
2018-06-25T02:45:11.210Z,72.50
2018-06-25T02:47:46.750Z,72.26
2018-06-25T02:50:22.304Z,72.80
2018-06-25T02:52:58.280Z,72.53
2018-06-25T02:55:34.137Z,72.71
2018-06-25T02:58:09.970Z,72.61
2018-06-25T03:00:45.697Z,71.87
2018-06-25T03:03:21.268Z,72.38
2018-06-25T03:05:56.896Z,72.26
2018-06-25T03:08:32.492Z,72.60
2018-06-25T03:11:08.772Z,72.70
2018-06-25T03:13:44.166Z,72.76
2018-06-25T03:16:20.418Z,72.18
2018-06-25T03:18:56.038Z,72.18
2018-06-25T03:21:31.668Z,72.90
2018-06-25T03:24:07.199Z,72.88
2018-06-25T03:26:42.792Z,72.85
2018-06-25T03:29:18.429Z,72.43
2018-06-25T03:31:54.226Z,72.46
2018-06-25T03:34:30.229Z,72.74
2018-06-25T03:37:06.225Z,72.94
2018-06-25T03:39:41.985Z,72.42
2018-06-25T03:42:17.996Z,72.54
2018-06-25T03:44:53.487Z,72.52
2018-06-25T03:47:29.160Z,72.90
2018-06-25T03:50:05.030Z,72.51
2018-06-25T03:52:40.661Z,72.34
2018-06-25T03:55:16.197Z,73.02
2018-06-25T03:57:52.469Z,72.46
2018-06-25T04:00:27.871Z,72.34
2018-06-25T04:03:03.585Z,72.16
2018-06-25T04:05:39.162Z,72.79
2018-06-25T04:08:15.189Z,72.69
2018-06-25T04:10:50.719Z,74.26
2018-06-25T04:13:25.983Z,74.83
2018-06-25T04:16:01.476Z,76.94
2018-06-25T04:18:36.957Z,76.87
2018-06-25T04:21:12.649Z,76.73
2018-06-25T04:23:48.360Z,75.60
2018-06-25T04:26:24.217Z,74.77
2018-06-25T04:28:59.866Z,73.74
2018-06-25T04:31:35.504Z,73.88
2018-06-25T04:34:11.431Z,73.56
2018-06-25T04:36:47.471Z,72.58
2018-06-25T04:39:23.132Z,72.62
2018-06-25T04:41:58.803Z,71.76
2018-06-25T04:44:34.301Z,71.27
2018-06-25T04:47:10.149Z,70.98
2018-06-25T04:49:45.603Z,71.42
2018-06-25T04:52:21.014Z,70.16
2018-06-25T04:54:56.865Z,71.86
2018-06-25T04:57:32.869Z,71.14
2018-06-25T05:00:08.489Z,70.63
2018-06-25T05:02:44.176Z,70.10
2018-06-25T05:05:20.048Z,69.70
2018-06-25T05:07:55.789Z,69.46
2018-06-25T05:10:31.327Z,68.89
2018-06-25T05:13:08.046Z,68.88
2018-06-25T05:15:43.844Z,68.95
2018-06-25T05:18:20.138Z,68.67
2018-06-25T05:20:55.974Z,68.36
2018-06-25T05:23:31.760Z,70.02
2018-06-25T05:26:07.583Z,69.35
2018-06-25T05:28:43.460Z,69.38
2018-06-25T05:31:18.995Z,68.92
2018-06-25T05:33:55.302Z,68.19
2018-06-25T05:36:30.780Z,66.69
2018-06-25T05:39:09.832Z,66.33
2018-06-25T05:41:45.554Z,65.34
2018-06-25T05:44:21.950Z,63.77
2018-06-25T05:47:12.538Z,64.24
2018-06-25T05:49:48.568Z,64.70
2018-06-25T05:52:24.148Z,65.11
2018-06-25T05:54:59.715Z,64.96
2018-06-25T05:57:35.394Z,65.32
2018-06-25T06:00:10.995Z,66.48
2018-06-25T06:02:46.791Z,66.95
2018-06-25T06:05:22.314Z,66.59
2018-06-25T06:07:57.784Z,65.12
2018-06-25T06:10:33.092Z,63.90
2018-06-25T06:13:08.616Z,60.81
2018-06-25T06:15:44.220Z,59.92
2018-06-25T06:18:20.214Z,60.62
2018-06-25T06:20:55.916Z,60.21
2018-06-25T06:23:31.554Z,59.96
2018-06-25T06:26:07.084Z,61.09
2018-06-25T06:28:42.817Z,62.14
2018-06-25T06:31:18.458Z,62.69
2018-06-25T06:33:54.572Z,63.20
2018-06-25T06:36:30.191Z,61.07
2018-06-25T06:39:11.311Z,59.35
2018-06-25T06:41:47.092Z,56.73
2018-06-25T06:44:23.188Z,53.22
2018-06-25T06:46:59.302Z,50.66
2018-06-25T06:49:34.963Z,51.88
2018-06-25T06:52:10.713Z,52.46
2018-06-25T06:54:46.210Z,55.25
2018-06-25T06:57:22.297Z,55.94
2018-06-25T06:59:57.886Z,57.59
2018-06-25T07:02:45.823Z,59.01
2018-06-25T07:05:35.021Z,58.98
2018-06-25T07:08:23.468Z,58.72
2018-06-25T07:11:08.355Z,58.31
2018-06-25T07:13:43.891Z,56.44
2018-06-25T07:16:19.318Z,53.80
2018-06-25T07:18:54.916Z,50.38
2018-06-25T07:21:30.636Z,48.18
2018-06-25T07:24:06.517Z,46.89
2018-06-25T07:26:41.994Z,46.38
2018-06-25T07:29:17.420Z,47.23
2018-06-25T07:31:53.260Z,47.67
2018-06-25T07:34:28.908Z,47.04
2018-06-25T07:37:05.030Z,49.31
2018-06-25T07:39:40.674Z,49.97
2018-06-25T07:42:16.239Z,51.31
2018-06-25T07:44:51.828Z,52.05
2018-06-25T07:47:27.543Z,51.45
2018-06-25T07:50:03.298Z,50.27
2018-06-25T07:52:38.720Z,52.77
2018-06-25T07:55:14.240Z,52.69
2018-06-25T07:57:50.034Z,54.04
2018-06-25T08:00:25.430Z,53.99
2018-06-25T08:03:00.910Z,54.65
2018-06-25T08:05:36.331Z,53.15
2018-06-25T08:08:12.020Z,51.96
2018-06-25T08:10:47.566Z,52.30
2018-06-25T08:13:23.102Z,52.80
2018-06-25T08:15:58.643Z,52.17
2018-06-25T08:18:34.909Z,48.94
2018-06-25T08:21:10.351Z,47.51
2018-06-25T08:23:45.866Z,48.42
2018-06-25T08:26:21.394Z,47.64
2018-06-25T08:28:56.832Z,47.98
2018-06-25T08:31:32.170Z,47.89
2018-06-25T08:34:08.090Z,48.39
2018-06-25T08:36:43.601Z,48.53
2018-06-25T08:39:19.161Z,50.48
2018-06-25T08:41:54.845Z,51.57
2018-06-25T08:44:30.365Z,50.07
2018-06-25T08:47:06.087Z,48.56
2018-06-25T08:49:41.411Z,49.96
2018-06-25T08:52:16.713Z,51.51
2018-06-25T08:54:52.091Z,53.19
2018-06-25T08:57:27.735Z,51.63
2018-06-25T09:00:04.455Z,49.90
2018-06-25T09:02:39.986Z,47.02
2018-06-25T09:05:15.436Z,46.34
2018-06-25T09:07:50.909Z,45.15
2018-06-25T09:10:26.356Z,43.20
2018-06-25T09:13:01.963Z,43.44
2018-06-25T09:15:37.443Z,42.69
2018-06-25T09:18:13.082Z,41.91
2018-06-25T09:20:48.737Z,41.56
2018-06-25T09:23:24.283Z,40.76
2018-06-25T09:25:59.601Z,40.58
2018-06-25T09:28:35.267Z,40.11
2018-06-25T09:31:10.693Z,37.61
2018-06-25T09:33:46.267Z,35.04
2018-06-25T09:36:21.681Z,34.53
2018-06-25T09:38:57.093Z,38.85
2018-06-25T09:41:32.476Z,39.93
2018-06-25T09:44:08.245Z,38.26
2018-06-25T09:46:43.637Z,38.33
2018-06-25T09:49:19.185Z,38.78
2018-06-25T09:51:54.657Z,38.24
2018-06-25T09:54:30.365Z,38.49
2018-06-25T09:57:06.615Z,39.25
2018-06-25T09:59:41.935Z,38.53
2018-06-25T10:02:17.584Z,37.51
2018-06-25T10:04:53.162Z,37.46
2018-06-25T10:07:28.649Z,35.06
2018-06-25T10:10:04.198Z,31.28
2018-06-25T10:12:39.687Z,28.86
2018-06-25T10:15:15.155Z,27.97
2018-06-25T10:17:51.076Z,25.94
2018-06-25T10:20:26.859Z,28.48
2018-06-25T10:23:02.419Z,30.73
2018-06-25T10:25:38.394Z,33.02
2018-06-25T10:28:13.938Z,36.87
2018-06-25T10:30:49.252Z,37.30
2018-06-25T10:33:24.897Z,37.70
2018-06-25T10:36:01.595Z,37.81
2018-06-25T10:38:37.017Z,39.03
2018-06-25T10:41:56.509Z,39.55
2018-06-25T10:44:31.953Z,39.62
2018-06-25T10:47:07.547Z,40.05
2018-06-25T10:49:43.420Z,39.09
2018-06-25T10:52:19.009Z,33.32
2018-06-25T10:54:55.141Z,32.35
2018-06-25T10:57:30.608Z,30.14
2018-06-25T11:00:06.971Z,28.66
2018-06-25T11:02:42.273Z,28.56
2018-06-25T11:05:17.827Z,30.84
2018-06-25T11:07:53.535Z,32.76
2018-06-25T11:10:30.951Z,35.07
2018-06-25T11:13:09.276Z,34.67
2018-06-25T11:15:54.859Z,35.96
2018-06-25T11:18:30.674Z,36.83
2018-06-25T11:21:06.332Z,38.74
2018-06-25T11:23:41.925Z,38.78
2018-06-25T11:26:17.461Z,38.27
2018-06-25T11:28:52.954Z,37.21
2018-06-25T11:31:28.427Z,37.26
2018-06-25T11:34:04.361Z,35.92
2018-06-25T11:36:39.930Z,33.58
2018-06-25T11:39:15.594Z,33.46
2018-06-25T11:41:51.184Z,33.71
2018-06-25T11:44:26.771Z,38.49
2018-06-25T11:47:02.410Z,41.35
2018-06-25T11:49:38.042Z,41.42
2018-06-25T11:52:13.691Z,39.83
2018-06-25T11:54:49.190Z,37.53
2018-06-25T11:57:24.661Z,30.35
2018-06-25T12:00:01.035Z,23.63
2018-06-25T12:02:36.792Z,25.54
2018-06-25T12:05:12.391Z,20.58
2018-06-25T12:07:48.058Z,25.22
2018-06-25T12:10:23.748Z,28.77
2018-06-25T12:12:59.185Z,32.72
2018-06-25T12:15:34.629Z,35.79
2018-06-25T12:18:10.404Z,36.09
2018-06-25T12:20:46.076Z,37.79
2018-06-25T12:23:22.048Z,38.39
2018-06-25T12:25:57.947Z,26.29
2018-06-25T12:28:33.799Z,23.12
2018-06-25T12:31:09.718Z,24.26
2018-06-25T12:33:45.359Z,23.55
2018-06-25T12:36:21.659Z,19.50
2018-06-25T12:38:57.412Z,19.30
2018-06-25T12:41:33.300Z,25.19
2018-06-25T12:44:09.264Z,26.07
2018-06-25T12:46:44.877Z,26.24
2018-06-25T12:49:20.606Z,26.44
2018-06-25T12:51:56.330Z,23.24
2018-06-25T12:54:31.737Z,21.42
2018-06-25T12:57:08.041Z,23.26
2018-06-25T12:59:46.769Z,29.30
2018-06-25T13:02:22.018Z,28.65
2018-06-25T13:04:57.821Z,24.25
2018-06-25T13:07:33.406Z,17.79
2018-06-25T13:10:10.185Z,16.54
2018-06-25T13:12:45.689Z,18.56
2018-06-25T13:15:21.121Z,23.10
2018-06-25T13:17:56.888Z,26.71
2018-06-25T13:20:33.345Z,28.14
2018-06-25T13:23:09.074Z,29.85
2018-06-25T13:25:44.932Z,33.19
2018-06-25T13:28:20.262Z,33.84
2018-06-25T13:30:56.016Z,34.87
2018-06-25T13:33:31.366Z,34.81
2018-06-25T13:36:06.999Z,33.91
2018-06-25T13:38:42.544Z,30.21
2018-06-25T13:41:18.036Z,26.15
2018-06-25T13:43:53.298Z,27.81
2018-06-25T13:46:28.796Z,28.71
2018-06-25T13:49:04.208Z,26.48
2018-06-25T13:51:39.768Z,25.07
2018-06-25T13:54:15.596Z,30.03
2018-06-25T13:56:51.194Z,30.58
2018-06-25T13:59:26.754Z,30.60
2018-06-25T14:02:02.360Z,27.79
2018-06-25T14:04:38.174Z,26.82
2018-06-25T14:07:13.822Z,28.80
2018-06-25T14:09:50.928Z,29.24
2018-06-25T14:12:26.432Z,28.50
2018-06-25T14:15:02.159Z,26.64
2018-06-25T14:17:37.674Z,20.99
2018-06-25T14:20:13.320Z,17.62
2018-06-25T14:22:49.037Z,16.01
2018-06-25T14:25:24.644Z,16.98
2018-06-25T14:28:05.603Z,22.86
2018-06-25T14:30:46.109Z,25.78
2018-06-25T14:33:26.750Z,30.21
2018-06-25T14:36:02.304Z,32.92
2018-06-25T14:38:37.693Z,34.93
2018-06-25T14:41:13.097Z,30.75
2018-06-25T14:43:48.608Z,28.33
2018-06-25T14:46:24.150Z,33.46
2018-06-25T14:48:59.718Z,32.16
2018-06-25T14:51:34.988Z,28.01
2018-06-25T14:54:12.240Z,19.50
2018-06-25T14:56:47.587Z,18.64
2018-06-25T14:59:23.067Z,18.11
2018-06-25T15:01:59.057Z,19.42
2018-06-25T15:04:34.608Z,26.26
2018-06-25T15:07:09.870Z,29.34
2018-06-25T15:09:45.427Z,30.94
2018-06-25T15:12:21.016Z,32.00
2018-06-25T15:14:56.386Z,32.21
2018-06-25T15:17:32.004Z,32.54
2018-06-25T15:20:07.686Z,31.35
2018-06-25T15:22:43.046Z,32.96
2018-06-25T15:25:18.554Z,32.54
2018-06-25T15:27:53.876Z,28.39
2018-06-25T15:30:29.446Z,23.15
2018-06-25T15:33:06.050Z,20.54
2018-06-25T15:35:41.603Z,20.81
2018-06-25T15:38:44.601Z,20.21
2018-06-25T15:41:20.289Z,17.87
2018-06-25T15:44:11.653Z,20.44
2018-06-25T15:46:47.081Z,25.37
2018-06-25T15:49:22.690Z,26.83
2018-06-25T15:51:58.257Z,29.25
2018-06-25T15:54:33.769Z,33.00
2018-06-25T15:57:09.181Z,33.32
2018-06-25T15:59:45.811Z,30.31
2018-06-25T16:02:21.389Z,26.14
2018-06-25T16:04:56.836Z,28.98
2018-06-25T16:07:32.883Z,32.61
2018-06-25T16:10:08.407Z,33.99
2018-06-25T16:12:43.991Z,33.51
2018-06-25T16:15:19.510Z,26.66
2018-06-25T16:18:06.628Z,28.26
2018-06-25T16:20:42.253Z,28.35
2018-06-25T16:23:18.215Z,26.93
2018-06-25T16:25:53.897Z,22.54
2018-06-25T16:28:30.252Z,24.66
2018-06-25T16:31:05.875Z,21.17
2018-06-25T16:33:41.852Z,23.45
2018-06-25T16:36:17.334Z,26.39
2018-06-25T16:38:52.851Z,30.52
2018-06-25T16:41:28.511Z,31.12
2018-06-25T16:44:04.261Z,30.96
2018-06-25T16:46:40.825Z,31.82
2018-06-25T16:49:16.528Z,31.48
2018-06-25T16:51:53.348Z,30.27
2018-06-25T16:54:29.050Z,28.72
2018-06-25T16:57:05.132Z,28.86
2018-06-25T16:59:41.968Z,29.36
2018-06-25T17:02:17.617Z,28.27
2018-06-25T17:04:53.342Z,29.22
2018-06-25T17:07:29.093Z,26.14
2018-06-25T17:10:05.686Z,25.26
2018-06-25T17:12:41.365Z,24.17
2018-06-25T17:15:17.826Z,27.46
2018-06-25T17:17:53.506Z,30.64
2018-06-25T17:20:28.964Z,32.08
2018-06-25T17:23:06.403Z,33.87
2018-06-25T17:25:42.691Z,33.16
2018-06-25T17:28:18.565Z,33.13
2018-06-25T17:30:56.045Z,33.36
2018-06-25T17:33:32.479Z,32.92
2018-06-25T17:36:08.380Z,33.87
2018-06-25T17:38:44.953Z,34.19
2018-06-25T17:41:21.176Z,34.88
2018-06-25T17:43:58.095Z,34.93
2018-06-25T17:46:34.188Z,35.70
2018-06-25T17:49:09.796Z,36.27
2018-06-25T17:51:46.166Z,35.91
2018-06-25T17:54:23.229Z,36.11
2018-06-25T17:56:58.937Z,36.77
2018-06-25T17:59:35.420Z,37.04
2018-06-25T18:02:12.578Z,37.42
2018-06-25T18:04:48.649Z,36.97
2018-06-25T18:07:24.428Z,37.72
2018-06-25T18:10:02.264Z,37.26
2018-06-25T18:12:38.450Z,38.02
2018-06-25T18:15:14.302Z,38.09
2018-06-25T18:17:50.734Z,38.39
2018-06-25T18:20:26.377Z,38.28
2018-06-25T18:23:02.834Z,38.85
2018-06-25T18:25:40.511Z,37.42
2018-06-25T18:28:17.496Z,37.56
2018-06-25T18:30:53.544Z,37.31
2018-06-25T18:33:30.420Z,37.17
2018-06-25T18:36:06.828Z,37.82
2018-06-25T18:38:43.227Z,38.85
2018-06-25T18:41:18.893Z,39.87
2018-06-25T18:43:55.555Z,40.19
2018-06-25T18:46:31.320Z,41.54
2018-06-25T18:49:08.638Z,41.25
2018-06-25T18:51:44.331Z,41.14
2018-06-25T18:54:21.170Z,41.03
2018-06-25T18:56:57.778Z,42.53
2018-06-25T18:59:33.913Z,43.11
2018-06-25T19:02:09.358Z,43.27
2018-06-25T19:04:45.394Z,43.95
2018-06-25T19:07:22.873Z,44.21
2018-06-25T19:09:58.938Z,46.36
2018-06-25T19:12:35.720Z,45.80
2018-06-25T19:15:11.985Z,45.77
2018-06-25T19:17:49.826Z,46.62
2018-06-25T19:20:29.486Z,46.94
2018-06-25T19:23:04.960Z,45.81
2018-06-25T19:25:42.711Z,45.75
2018-06-25T19:28:18.380Z,45.65
2018-06-25T19:30:55.216Z,45.84
2018-06-25T19:33:32.080Z,46.52
2018-06-25T19:36:09.610Z,46.92
2018-06-25T19:38:45.728Z,46.78
2018-06-25T19:41:21.644Z,47.01
2018-06-25T19:43:57.731Z,47.66
2018-06-25T19:46:34.406Z,47.22
2018-06-25T19:49:10.812Z,47.40
2018-06-25T19:51:49.485Z,48.46
2018-06-25T19:54:25.774Z,49.49
2018-06-25T19:57:02.479Z,51.23
2018-06-25T19:59:39.892Z,50.87
2018-06-25T20:02:15.939Z,51.24
2018-06-25T20:04:52.922Z,51.77
2018-06-25T20:07:29.805Z,51.63
2018-06-25T20:10:07.367Z,52.40
2018-06-25T20:12:43.606Z,53.82
2018-06-25T20:15:19.793Z,54.35
2018-06-25T20:17:57.206Z,54.25
2018-06-25T20:20:32.818Z,53.89
2018-06-25T20:23:09.109Z,53.42
2018-06-25T20:25:44.792Z,54.19
2018-06-25T20:28:21.060Z,54.98
2018-06-25T20:30:57.044Z,55.03
2018-06-25T20:33:33.683Z,55.50
2018-06-25T20:36:09.928Z,55.10
2018-06-25T20:38:45.626Z,55.16
2018-06-25T20:41:21.815Z,54.75
2018-06-25T20:43:58.627Z,55.25
2018-06-25T20:46:34.750Z,54.88
2018-06-25T20:49:10.500Z,55.10
2018-06-25T20:51:46.683Z,55.78
2018-06-25T20:54:23.068Z,56.04
2018-06-25T20:57:04.957Z,55.60
2018-06-25T20:59:40.527Z,56.28
2018-06-25T21:02:17.601Z,57.02
2018-06-25T21:04:54.088Z,56.93
2018-06-25T21:07:30.512Z,56.78
2018-06-25T21:10:07.093Z,56.55
2018-06-25T21:12:44.384Z,57.25
2018-06-25T21:15:20.323Z,57.21
2018-06-25T21:17:55.992Z,57.40
2018-06-25T21:20:31.695Z,57.30
2018-06-25T21:23:07.746Z,57.55
2018-06-25T21:25:43.360Z,57.14
2018-06-25T21:28:19.832Z,56.56
2018-06-25T21:30:55.726Z,57.19
2018-06-25T21:33:32.163Z,56.75
2018-06-25T21:36:08.312Z,57.48
2018-06-25T21:38:45.054Z,57.61
2018-06-25T21:41:21.778Z,58.12
2018-06-25T21:43:57.417Z,58.04
2018-06-25T21:46:33.238Z,58.07
2018-06-25T21:49:09.463Z,58.11
2018-06-25T21:51:45.353Z,58.84
2018-06-25T21:54:21.394Z,57.84
2018-06-25T21:56:58.056Z,58.18
2018-06-25T21:59:33.967Z,58.05
2018-06-25T22:02:10.177Z,57.99
2018-06-25T22:04:46.066Z,58.81
2018-06-25T22:07:21.782Z,60.03
2018-06-25T22:09:57.484Z,60.07
2018-06-25T22:12:32.920Z,60.57
2018-06-25T22:15:08.940Z,61.88
2018-06-25T22:17:46.110Z,62.01
2018-06-25T22:20:21.924Z,61.44
2018-06-25T22:23:03.549Z,61.86
2018-06-25T22:25:39.976Z,60.99
2018-06-25T22:28:16.488Z,60.83
2018-06-25T22:30:52.489Z,60.49
2018-06-25T22:33:28.467Z,60.86
2018-06-25T22:36:05.902Z,60.69
2018-06-25T22:38:42.614Z,60.63
2018-06-25T22:41:19.787Z,60.07
2018-06-25T22:44:04.802Z,60.21
2018-06-25T22:46:42.901Z,60.90
2018-06-25T22:49:18.931Z,61.46
2018-06-25T22:51:54.978Z,61.32
2018-06-25T22:54:30.630Z,62.30
2018-06-25T22:57:07.380Z,62.11
2018-06-25T22:59:42.956Z,62.06
2018-06-25T23:02:20.086Z,61.75
2018-06-25T23:04:57.094Z,63.10
2018-06-25T23:07:33.997Z,61.97
2018-06-25T23:10:10.060Z,62.16
2018-06-25T23:12:48.163Z,61.67
2018-06-25T23:15:23.818Z,62.47
2018-06-25T23:17:59.484Z,62.07
2018-06-25T23:20:34.962Z,62.00
2018-06-25T23:23:11.485Z,62.20
2018-06-25T23:25:48.226Z,62.57
2018-06-25T23:28:24.282Z,62.58
2018-06-25T23:31:00.351Z,62.78
2018-06-25T23:33:36.928Z,62.88
2018-06-25T23:36:13.030Z,63.17
2018-06-25T23:38:49.589Z,62.98
2018-06-25T23:41:25.233Z,63.33
2018-06-25T23:44:02.517Z,63.77
2018-06-25T23:46:38.639Z,64.76
2018-06-25T23:49:14.663Z,64.07
2018-06-25T23:51:50.481Z,64.21
2018-06-25T23:54:27.465Z,65.41
2018-06-25T23:57:03.219Z,64.97
2018-06-25T23:59:38.999Z,65.29
